BrazilFixed distance
DesaFrio Urubici - 52km Corrida de Montanha
18 Jun2011
Distance
52km
Finishers
187156 men31 women
Winning time
4:13:11h
Median pace
7.70km/h
Pace distribution
187 finishers · 5.59–12.32 km/h · mean 8.05
Every finisher ran the same 52 km course, so these paces are directly comparable.
Histogram of finisher pace. 187 finishers ranged from 5.59 to 12.32 kilometres per hour, with a mean of 8.05 and a median of 7.70. The busiest band is 7.0 to 7.5 kilometres per hour, with 29 finishers.
Results
Ranks 1–50 of 187
| Rank | Runner | Time | Pace | Cat. | Placing |
|---|---|---|---|---|---|
| 1 | *Curitiba - PR | 4:13:11h | 12.32 | — | 1st M |
| 2 | *Palhoça - SC | 4:21:13h | 11.94 | M35 | 2nd M · 1st M35 |
| 3 | Perfipar | 4:30:14h | 11.55 | M35 | 3rd M · 2nd M35 |
| 4 | *Rio de Janeiro - RJ | 4:33:40h | 11.40 | M40 | 4th M · 1st M40 |
| 5 | *Urubici - SC | 4:33:41h | 11.40 | M23 | 5th M · 1st M23 |
| 6 | Ultrandrade | 4:38:18h | 11.21 | M45 | 6th M · 1st M45 |
| 7 | BPM / Clube Curitibano | 4:45:01h | 10.95 | M23 | 7th M · 2nd M23 |
| 8 | *Salvador - BA | 4:46:55h | 10.87 | M40 | 8th M · 2nd M40 |
| 9 | Remião/ Ah | 4:48:53h | 10.80 | M45 | 9th M · 2nd M45 |
| 10 | Aman | 4:51:29h | 10.70 | M45 | 10th M · 3rd M45 |
| 11 | Run & Fun - Nike - Pet... | 4:53:45h | 10.62 | M40 | 11th M · 3rd M40 |
| 12 | Força Vegana/ Família ... | 4:54:15h | 10.60 | M23 | 12th M · 3rd M23 |
| 13 | Petiskeira/Fitness Hal... | 4:55:05h | 10.57 | M23 | 13th M · 4th M23 |
| 14 | Clínica Igast | 4:55:47h | 10.55 | M55 | 14th M · 1st M55 |
| 15 | Tribo do Esporte | 4:57:37h | 10.48 | MU23 | 15th M · 1st MU23 |
| 16 | *Florianopolis - SC | 5:00:09h | 10.39 | — | 16th M |
| 17 | *Curitiba - PR | 5:03:57h | 10.27 | M50 | 17th M · 1st M50 |
| 18 | Gava Fitness / Takeda | 5:16:30h | 9.86 | M40 | 18th M · 4th M40 |
| 19 | Subway Runners Team | 5:18:05h | 9.81 | M23 | 19th M · 5th M23 |
| 20 | *Blumenau - SC | 5:18:42h | 9.79 | — | 20th M |
| 21 | *Porto Alegre - RS | 5:21:01h | 9.72 | M35 | 21st M · 3rd M35 |
| 22 | *Florianópolis - SC | 5:21:36h | 9.70 | — | 22nd M |
| 23 | Acorja - Recife | 5:27:45h | 9.52 | M45 | 23rd M · 4th M45 |
| 24 | *Curitiba - PR | 5:28:19h | 9.50 | M40 | 24th M · 5th M40 |
| 25 | Andarilha | 5:28:29h | 9.50 | M35 | 25th M · 4th M35 |
| 26 | Rota | 5:29:30h | 9.47 | M35 | 26th M · 5th M35 |
| 27 | Sertão | 5:30:05h | 9.45 | M23 | 27th M · 6th M23 |
| 28 | *Porto Alegre - RS | 5:31:21h | 9.42 | — | 28th M |
| 29 | *Curitiba - PR | 5:32:13h | 9.39 | MU23 | 29th M · 2nd MU23 |
| 30 | Academia Base 1 | 5:32:31h | 9.38 | — | 30th M |
| 31 | *Florianópolis - SC | 5:33:05h | 9.37 | W35 | 1st F · 1st W35 |
| 32 | *Brasilia - DF | 5:34:02h | 9.34 | M23 | 31st M · 7th M23 |
| 33 | *Curitiba - PR | 5:35:06h | 9.31 | M45 | 32nd M · 5th M45 |
| 34 | Equipe Papa Km | 5:36:10h | 9.28 | M45 | 33rd M · 6th M45 |
| 35 | TOPMED | 5:37:08h | 9.25 | M35 | 34th M · 6th M35 |
| 36 | *Curitiba - PR | 5:39:26h | 9.19 | M23 | 35th M · 8th M23 |
| 37 | *Curitiba - PR | 5:41:53h | 9.13 | — | 36th M |
| 38 | Aventura | 5:43:30h | 9.08 | M55 | 37th M · 2nd M55 |
| 39 | *Londrina - PR | 5:45:35h | 9.03 | M40 | 38th M · 6th M40 |
| 40 | SNC | 5:45:45h | 9.02 | W35 | 2nd F · 2nd W35 |
| 41 | Academia Enegia Vital ... | 5:45:50h | 9.02 | M40 | 39th M · 7th M40 |
| 42 | suldailha.com.br / Tri... | 5:45:56h | 9.02 | M23 | 40th M · 9th M23 |
| 43 | Subway Runners Team | 5:47:20h | 8.98 | M35 | 41st M · 7th M35 |
| 44 | *Paranaguá - PR | 5:49:08h | 8.94 | M50 | 42nd M · 2nd M50 |
| 45 | *Criciúma - SC | 5:49:22h | 8.93 | — | 43rd M |
| 46 | *São Paulo - SP | 5:50:01h | 8.91 | — | 44th M |
| 47 | *Curitiba - PR | 5:51:10h | 8.88 | M40 | 45th M · 8th M40 |
| 48 | *Cuiaba - MT | 5:51:50h | 8.87 | — | 46th M |
| 49 | Água Doce Blumenau | 5:52:50h | 8.84 | — | 47th M |
| 50 | Acorja - Recife | 5:52:55h | 8.84 | W35 | 3rd F · 3rd W35 |
- 1*Curitiba - PR1st MTime4:13:11hPace12.32
- 2*Palhoça - SC2nd M · 1st M35Time4:21:13hPace11.94Cat.M35
- 3Perfipar3rd M · 2nd M35Time4:30:14hPace11.55Cat.M35
- 4*Rio de Janeiro - RJ4th M · 1st M40Time4:33:40hPace11.40Cat.M40
- 5*Urubici - SC5th M · 1st M23Time4:33:41hPace11.40Cat.M23
- 6Ultrandrade6th M · 1st M45Time4:38:18hPace11.21Cat.M45
- 7BPM / Clube Curitibano7th M · 2nd M23Time4:45:01hPace10.95Cat.M23
- 8*Salvador - BA8th M · 2nd M40Time4:46:55hPace10.87Cat.M40
- 9Remião/ Ah9th M · 2nd M45Time4:48:53hPace10.80Cat.M45
- 10Aman10th M · 3rd M45Time4:51:29hPace10.70Cat.M45
- 11Run & Fun - Nike - Pet...11th M · 3rd M40Time4:53:45hPace10.62Cat.M40
- 12Força Vegana/ Família ...12th M · 3rd M23Time4:54:15hPace10.60Cat.M23
- 13Petiskeira/Fitness Hal...13th M · 4th M23Time4:55:05hPace10.57Cat.M23
- 14Clínica Igast14th M · 1st M55Time4:55:47hPace10.55Cat.M55
- 15Tribo do Esporte15th M · 1st MU23Time4:57:37hPace10.48Cat.MU23
- 16*Florianopolis - SC16th MTime5:00:09hPace10.39
- 17*Curitiba - PR17th M · 1st M50Time5:03:57hPace10.27Cat.M50
- 18Gava Fitness / Takeda18th M · 4th M40Time5:16:30hPace9.86Cat.M40
- 19Subway Runners Team19th M · 5th M23Time5:18:05hPace9.81Cat.M23
- 20*Blumenau - SC20th MTime5:18:42hPace9.79
- 21*Porto Alegre - RS21st M · 3rd M35Time5:21:01hPace9.72Cat.M35
- 22*Florianópolis - SC22nd MTime5:21:36hPace9.70
- 23Acorja - Recife23rd M · 4th M45Time5:27:45hPace9.52Cat.M45
- 24*Curitiba - PR24th M · 5th M40Time5:28:19hPace9.50Cat.M40
- 25Andarilha25th M · 4th M35Time5:28:29hPace9.50Cat.M35
- 26Rota26th M · 5th M35Time5:29:30hPace9.47Cat.M35
- 27Sertão27th M · 6th M23Time5:30:05hPace9.45Cat.M23
- 28*Porto Alegre - RS28th MTime5:31:21hPace9.42
- 29*Curitiba - PR29th M · 2nd MU23Time5:32:13hPace9.39Cat.MU23
- 30Academia Base 130th MTime5:32:31hPace9.38
- 31*Florianópolis - SC1st F · 1st W35Time5:33:05hPace9.37Cat.W35
- 32*Brasilia - DF31st M · 7th M23Time5:34:02hPace9.34Cat.M23
- 33*Curitiba - PR32nd M · 5th M45Time5:35:06hPace9.31Cat.M45
- 34Equipe Papa Km33rd M · 6th M45Time5:36:10hPace9.28Cat.M45
- 35TOPMED34th M · 6th M35Time5:37:08hPace9.25Cat.M35
- 36*Curitiba - PR35th M · 8th M23Time5:39:26hPace9.19Cat.M23
- 37*Curitiba - PR36th MTime5:41:53hPace9.13
- 38Aventura37th M · 2nd M55Time5:43:30hPace9.08Cat.M55
- 39*Londrina - PR38th M · 6th M40Time5:45:35hPace9.03Cat.M40
- 40SNC2nd F · 2nd W35Time5:45:45hPace9.02Cat.W35
- 41Academia Enegia Vital ...39th M · 7th M40Time5:45:50hPace9.02Cat.M40
- 42suldailha.com.br / Tri...40th M · 9th M23Time5:45:56hPace9.02Cat.M23
- 43Subway Runners Team41st M · 7th M35Time5:47:20hPace8.98Cat.M35
- 44*Paranaguá - PR42nd M · 2nd M50Time5:49:08hPace8.94Cat.M50
- 45*Criciúma - SC43rd MTime5:49:22hPace8.93
- 46*São Paulo - SP44th MTime5:50:01hPace8.91
- 47*Curitiba - PR45th M · 8th M40Time5:51:10hPace8.88Cat.M40
- 48*Cuiaba - MT46th MTime5:51:50hPace8.87
- 49Água Doce Blumenau47th MTime5:52:50hPace8.84
- 50Acorja - Recife3rd F · 3rd W35Time5:52:55hPace8.84Cat.W35
Showing ranks 1–50 of 187